Time;durP1;ratioP1;P1;durP2;ratioP2;P2;SDS_P1;SDS_P2;PMS_P1;PMS_P2;Temp;Humidity;BMP_temperature;BMP_pressure;BME280_temperature;BME280_humidity;BME280_pressure;Samples;Min_cycle;Max_cycle;Signal;HPM_P1;HPM_P2
2023/12/28 00:02:18;;;;;;;5.60;2.10;;;;;;;-147.86;100.00;-17609.17;106087;1254;64576;-53
2023/12/28 00:04:45;;;;;;;5.90;2.30;;;;;;;-147.86;100.00;-17609.17;106076;1254;72458;-54
2023/12/28 00:07:12;;;;;;;6.00;2.80;;;;;;;-147.86;100.00;-17609.17;106047;1254;61086;-56
2023/12/28 00:09:39;;;;;;;10.10;2.90;;;;;;;-147.86;100.00;-17609.17;106090;1252;60309;-55
2023/12/28 00:12:06;;;;;;;8.40;2.90;;;;;;;-147.86;100.00;-17609.17;106098;1251;73808;-52
2023/12/28 00:14:33;;;;;;;9.70;2.40;;;;;;;-147.86;100.00;-17609.17;106008;1253;64491;-53
2023/12/28 00:17:00;;;;;;;9.80;3.00;;;;;;;-147.86;100.00;-17609.17;106001;1251;72672;-51
2023/12/28 00:19:27;;;;;;;14.10;2.40;;;;;;;-147.86;100.00;-17609.17;106018;1254;60980;-54
2023/12/28 00:21:54;;;;;;;5.90;2.50;;;;;;;-147.86;100.00;-17609.17;106065;1251;60476;-56
2023/12/28 00:24:21;;;;;;;14.20;3.00;;;;;;;-147.86;100.00;-17609.17;106077;1251;73757;-53
2023/12/28 00:26:48;;;;;;;10.10;2.90;;;;;;;-147.86;100.00;-17609.17;106059;1254;64583;-57
2023/12/28 00:29:15;;;;;;;9.60;2.60;;;;;;;-147.86;100.00;-17609.17;106059;1251;72680;-53
2023/12/28 00:31:42;;;;;;;6.00;2.70;;;;;;;-147.86;100.00;-17609.17;106079;1254;62415;-52
2023/12/28 00:34:09;;;;;;;7.90;3.10;;;;;;;-147.86;100.00;-17609.17;106067;1251;60583;-52
2023/12/28 00:36:37;;;;;;;6.40;2.70;;;;;;;-147.86;100.00;-17609.17;106053;1253;73842;-54
2023/12/28 00:39:04;;;;;;;9.30;3.30;;;;;;;-147.86;100.00;-17609.17;106044;1254;64780;-49
2023/12/28 00:41:31;;;;;;;6.90;3.10;;;;;;;-147.86;100.00;-17609.17;106044;1252;72567;-56
2023/12/28 00:43:58;;;;;;;5.10;3.80;;;;;;;-147.86;100.00;-17609.17;106028;1253;60529;-51
2023/12/28 00:46:25;;;;;;;10.30;3.70;;;;;;;-147.86;100.00;-17609.17;106056;1250;60489;-56
2023/12/28 00:48:52;;;;;;;10.60;4.00;;;;;;;-147.86;100.00;-17609.17;106074;1252;73713;-56
2023/12/28 00:51:20;;;;;;;6.50;3.50;;;;;;;-147.86;100.00;-17609.17;106099;1251;64602;-53
2023/12/28 00:53:47;;;;;;;7.30;3.40;;;;;;;-147.86;100.00;-17609.17;106101;1254;72457;-52
2023/12/28 00:56:14;;;;;;;6.50;2.60;;;;;;;-147.86;100.00;-17609.17;106059;1254;61112;-53
2023/12/28 00:58:43;;;;;;;8.70;2.60;;;;;;;-147.86;100.00;-17609.17;106021;1250;60853;-55
2023/12/28 01:01:10;;;;;;;8.60;3.30;;;;;;;-147.86;100.00;-17609.17;106114;1251;73816;-55
2023/12/28 01:03:39;;;;;;;4.90;2.30;;;;;;;-147.86;100.00;-17609.17;106029;1253;64784;-53
2023/12/28 01:06:07;;;;;;;6.30;2.70;;;;;;;-147.86;100.00;-17609.17;106026;1251;72495;-56
2023/12/28 01:08:34;;;;;;;7.70;2.10;;;;;;;-147.86;100.00;-17609.17;106014;1254;62068;-56
2023/12/28 01:11:02;;;;;;;10.40;2.30;;;;;;;-147.86;100.00;-17609.17;106105;1251;60469;-55
2023/12/28 01:13:30;;;;;;;5.30;2.10;;;;;;;-147.86;100.00;-17609.17;106012;1257;73604;-51
2023/12/28 01:15:57;;;;;;;4.20;1.70;;;;;;;-147.86;100.00;-17609.17;106085;1253;64589;-57
2023/12/28 01:18:24;;;;;;;8.60;2.30;;;;;;;-147.86;100.00;-17609.17;106050;1251;72649;-52
2023/12/28 01:20:51;;;;;;;5.60;1.90;;;;;;;-147.86;100.00;-17609.17;105938;1256;60845;-55
2023/12/28 01:23:18;;;;;;;4.70;1.70;;;;;;;-147.86;100.00;-17609.17;106037;1251;60642;-54
2023/12/28 01:25:45;;;;;;;7.60;1.90;;;;;;;-147.86;100.00;-17609.17;106072;1251;73762;-52
2023/12/28 01:28:12;;;;;;;7.20;2.00;;;;;;;-147.86;100.00;-17609.17;106104;1254;64501;-51
2023/12/28 01:30:39;;;;;;;6.60;2.20;;;;;;;-147.86;100.00;-17609.17;106031;1251;72580;-50
2023/12/28 01:33:06;;;;;;;8.70;2.60;;;;;;;-147.86;100.00;-17609.17;106087;1254;61007;-55
2023/12/28 01:35:33;;;;;;;7.50;2.90;;;;;;;-147.86;100.00;-17609.17;106085;1250;60463;-54
2023/12/28 01:38:01;;;;;;;19.50;3.50;;;;;;;-147.86;100.00;-17609.17;106078;1251;72783;-49
2023/12/28 01:40:29;;;;;;;10.50;3.00;;;;;;;-147.86;100.00;-17609.17;106157;1254;64662;-51
2023/12/28 01:42:55;;;;;;;10.30;2.70;;;;;;;-147.86;100.00;-17609.17;106106;1252;72551;-53
2023/12/28 01:45:22;;;;;;;7.90;2.90;;;;;;;-147.86;100.00;-17609.17;106051;1254;61540;-51
2023/12/28 01:47:49;;;;;;;11.20;3.00;;;;;;;-147.86;100.00;-17609.17;106096;1251;60467;-57
2023/12/28 01:50:16;;;;;;;12.30;2.90;;;;;;;-147.86;100.00;-17609.17;106029;1257;72788;-51
2023/12/28 01:52:43;;;;;;;12.00;3.00;;;;;;;-147.86;100.00;-17609.17;106077;1253;64713;-57
2023/12/28 01:55:10;;;;;;;11.30;2.30;;;;;;;-147.86;100.00;-17609.17;106011;1250;72567;-51
2023/12/28 01:57:37;;;;;;;18.10;3.00;;;;;;;-147.86;100.00;-17609.17;106120;1253;61186;-54
2023/12/28 02:00:05;;;;;;;13.60;2.80;;;;;;;-147.86;100.00;-17609.17;106039;1250;60477;-56
2023/12/28 02:02:39;;;;;;;11.70;2.60;;;;;;;-147.86;100.00;-17609.17;106091;1251;74189;-54
2023/12/28 02:05:07;;;;;;;7.80;2.60;;;;;;;-147.86;100.00;-17609.17;105989;1255;64982;-55
2023/12/28 02:07:34;;;;;;;6.70;2.40;;;;;;;-147.86;100.00;-17609.17;106145;1251;72314;-55
2023/12/28 02:10:01;;;;;;;5.10;2.20;;;;;;;-147.86;100.00;-17609.17;105955;1256;60489;-55
2023/12/28 02:12:29;;;;;;;6.00;2.50;;;;;;;-147.86;100.00;-17609.17;106031;1254;61162;-51
2023/12/28 02:14:55;;;;;;;8.60;2.10;;;;;;;-147.86;100.00;-17609.17;106024;1257;73674;-54
2023/12/28 02:17:24;;;;;;;7.60;2.50;;;;;;;-147.86;100.00;-17609.17;106043;1253;63380;-56
2023/12/28 02:19:55;;;;;;;6.50;2.10;;;;;;;-147.86;100.00;-17609.17;106037;1256;71387;-57
2023/12/28 02:22:26;;;;;;;6.70;2.00;;;;;;;-147.86;100.00;-17609.17;106024;1250;60744;-51
2023/12/28 02:25:14;;;;;;;13.40;2.50;;;;;;;-147.86;100.00;-17609.17;106071;1251;60446;-51
2023/12/28 02:27:46;;;;;;;6.30;2.30;;;;;;;-147.86;100.00;-17609.17;106033;1251;72827;-51
2023/12/28 02:30:15;;;;;;;7.20;2.10;;;;;;;-147.86;100.00;-17609.17;106024;1257;64567;-54
2023/12/28 02:33:04;;;;;;;6.30;2.20;;;;;;;-147.86;100.00;-17609.17;105997;1251;72621;-51
2023/12/28 02:35:46;;;;;;;4.80;1.60;;;;;;;-147.86;100.00;-17609.17;106021;1257;60504;-49
2023/12/28 02:38:14;;;;;;;4.90;2.30;;;;;;;-147.86;100.00;-17609.17;106065;1251;62084;-52
2023/12/28 02:40:43;;;;;;;2.40;1.50;;;;;;;-147.86;100.00;-17609.17;106062;1251;73520;-52
2023/12/28 02:43:12;;;;;;;4.50;1.70;;;;;;;-147.86;100.00;-17609.17;106053;1250;64473;-48
2023/12/28 02:45:39;;;;;;;3.00;1.40;;;;;;;-147.86;100.00;-17609.17;106093;1251;72621;-54
2023/12/28 02:48:07;;;;;;;17.20;2.40;;;;;;;-147.86;100.00;-17609.17;106056;1252;61146;-52
2023/12/28 02:50:34;;;;;;;4.20;2.00;;;;;;;-147.86;100.00;-17609.17;106047;1253;60491;-53
2023/12/28 02:53:01;;;;;;;8.50;1.90;;;;;;;-147.86;100.00;-17609.17;106061;1251;73824;-55
2023/12/28 02:55:28;;;;;;;5.20;1.50;;;;;;;-147.86;100.00;-17609.17;106108;1254;64562;-53
2023/12/28 02:57:56;;;;;;;4.20;2.00;;;;;;;-147.86;100.00;-17609.17;106090;1251;72468;-55
2023/12/28 03:00:23;;;;;;;6.40;1.50;;;;;;;-147.86;100.00;-17609.17;106004;1256;61115;-53
2023/12/28 03:02:50;;;;;;;4.80;1.40;;;;;;;-147.86;100.00;-17609.17;106056;1250;60454;-54
2023/12/28 03:05:18;;;;;;;2.80;1.40;;;;;;;-147.86;100.00;-17609.17;106118;1251;73812;-55
2023/12/28 03:07:45;;;;;;;9.50;1.80;;;;;;;-147.86;100.00;-17609.17;106065;1253;64668;-55
2023/12/28 03:10:12;;;;;;;6.30;2.00;;;;;;;-147.86;100.00;-17609.17;106089;1254;72416;-52
2023/12/28 03:12:41;;;;;;;3.40;1.70;;;;;;;-147.86;100.00;-17609.17;106008;1254;61115;-52
2023/12/28 03:15:08;;;;;;;6.40;1.90;;;;;;;-147.86;100.00;-17609.17;106040;1253;60450;-55
2023/12/28 03:17:36;;;;;;;7.10;1.90;;;;;;;-147.86;100.00;-17609.17;106097;1251;73798;-53
2023/12/28 03:20:04;;;;;;;4.10;1.80;;;;;;;-147.86;100.00;-17609.17;106036;1255;64646;-54
2023/12/28 03:22:31;;;;;;;4.50;1.60;;;;;;;-147.86;100.00;-17609.17;106097;1254;72537;-51
2023/12/28 03:24:58;;;;;;;2.90;1.80;;;;;;;-147.86;100.00;-17609.17;106024;1254;61035;-53
2023/12/28 03:27:25;;;;;;;3.50;2.10;;;;;;;-147.86;100.00;-17609.17;106065;1251;60542;-52
2023/12/28 03:29:52;;;;;;;7.90;1.90;;;;;;;-147.86;100.00;-17609.17;106050;1251;72727;-56
2023/12/28 03:32:20;;;;;;;3.20;1.70;;;;;;;-147.86;100.00;-17609.17;106101;1253;64460;-54
2023/12/28 03:34:48;;;;;;;12.40;2.20;;;;;;;-147.86;100.00;-17609.17;106058;1254;71814;-52
2023/12/28 03:37:16;;;;;;;9.70;2.10;;;;;;;-147.86;100.00;-17609.17;106066;1254;60756;-50
2023/12/28 03:39:43;;;;;;;3.30;2.00;;;;;;;-147.86;100.00;-17609.17;106152;1251;60511;-54
2023/12/28 03:42:10;;;;;;;2.70;1.90;;;;;;;-147.86;100.00;-17609.17;106025;1249;73772;-56
2023/12/28 03:44:38;;;;;;;6.30;2.20;;;;;;;-147.86;100.00;-17609.17;106076;1254;64510;-55
2023/12/28 03:47:06;;;;;;;3.80;1.70;;;;;;;-147.86;100.00;-17609.17;106041;1251;71140;-50
2023/12/28 03:49:33;;;;;;;3.00;1.70;;;;;;;-147.86;100.00;-17609.17;106117;1254;61014;-59
2023/12/28 03:52:00;;;;;;;4.20;1.80;;;;;;;-147.86;100.00;-17609.17;105972;1251;60408;-58
2023/12/28 03:54:29;;;;;;;6.80;2.20;;;;;;;-147.86;100.00;-17609.17;105789;1251;73830;-57
2023/12/28 03:56:57;;;;;;;5.40;1.80;;;;;;;-147.86;100.00;-17609.17;105954;1254;64450;-54
2023/12/28 03:59:24;;;;;;;4.10;2.10;;;;;;;-147.86;100.00;-17609.17;106065;1251;72645;-60
2023/12/28 04:01:50;;;;;;;5.70;2.00;;;;;;;-147.86;100.00;-17609.17;106087;1254;60937;-51
2023/12/28 04:04:18;;;;;;;7.90;2.30;;;;;;;-147.86;100.00;-17609.17;106035;1251;60478;-52
2023/12/28 04:06:45;;;;;;;6.50;2.20;;;;;;;-147.86;100.00;-17609.17;106084;1255;73866;-56
2023/12/28 04:09:12;;;;;;;5.20;2.40;;;;;;;-147.86;100.00;-17609.17;106039;1254;64777;-57
2023/12/28 04:11:39;;;;;;;11.30;2.70;;;;;;;-147.86;100.00;-17609.17;106081;1254;72537;-57
2023/12/28 04:14:06;;;;;;;7.80;2.00;;;;;;;-147.86;100.00;-17609.17;106016;1254;61035;-55
2023/12/28 04:16:33;;;;;;;8.00;2.10;;;;;;;-147.86;100.00;-17609.17;105940;1251;60436;-52
2023/12/28 04:19:00;;;;;;;7.40;2.20;;;;;;;-147.86;100.00;-17609.17;106043;1253;73736;-54
2023/12/28 04:21:27;;;;;;;5.80;2.10;;;;;;;-147.86;100.00;-17609.17;106083;1254;64623;-56
2023/12/28 04:23:54;;;;;;;6.20;2.40;;;;;;;-147.86;100.00;-17609.17;106081;1251;72711;-51
2023/12/28 04:26:21;;;;;;;8.30;2.20;;;;;;;-147.86;100.00;-17609.17;106041;1254;60992;-55
2023/12/28 04:28:48;;;;;;;5.60;2.10;;;;;;;-147.86;100.00;-17609.17;106070;1250;60517;-52
2023/12/28 04:31:14;;;;;;;5.40;2.00;;;;;;;-147.86;100.00;-17609.17;106022;1251;73784;-56
2023/12/28 04:33:43;;;;;;;4.70;2.10;;;;;;;-147.86;100.00;-17609.17;106077;1252;64588;-53
2023/12/28 04:36:10;;;;;;;7.30;2.90;;;;;;;-147.86;100.00;-17609.17;105992;1251;72482;-55
2023/12/28 04:38:38;;;;;;;6.00;2.00;;;;;;;-147.86;100.00;-17609.17;106116;1254;61139;-54
2023/12/28 04:41:05;;;;;;;4.10;1.90;;;;;;;-147.86;100.00;-17609.17;105998;1250;60488;-52
2023/12/28 04:43:33;;;;;;;6.10;2.30;;;;;;;-147.86;100.00;-17609.17;106066;1254;73904;-52
2023/12/28 04:46:04;;;;;;;7.20;2.30;;;;;;;-147.86;100.00;-17609.17;106072;1254;64677;-56
2023/12/28 04:48:34;;;;;;;7.80;2.70;;;;;;;-147.86;100.00;-17609.17;106019;1251;70937;-56
2023/12/28 04:51:04;;;;;;;9.10;2.20;;;;;;;-147.86;100.00;-17609.17;105992;1251;60891;-55
2023/12/28 04:53:31;;;;;;;5.40;2.10;;;;;;;-147.86;100.00;-17609.17;106094;1252;60534;-54
2023/12/28 04:55:58;;;;;;;6.30;2.20;;;;;;;-147.86;100.00;-17609.17;106000;1256;73785;-56
2023/12/28 04:58:25;;;;;;;6.80;2.70;;;;;;;-147.86;100.00;-17609.17;106112;1254;64547;-55
2023/12/28 05:00:51;;;;;;;3.80;1.80;;;;;;;-147.86;100.00;-17609.17;105991;1252;72694;-57
2023/12/28 05:03:19;;;;;;;3.50;2.30;;;;;;;-147.86;100.00;-17609.17;106048;1254;61095;-51
2023/12/28 05:05:46;;;;;;;7.70;2.50;;;;;;;-147.86;100.00;-17609.17;106080;1251;60578;-54
2023/12/28 05:08:16;;;;;;;9.50;2.60;;;;;;;-147.86;100.00;-17609.17;106056;1252;74189;-55
2023/12/28 05:10:42;;;;;;;10.50;2.10;;;;;;;-147.86;100.00;-17609.17;106075;1255;64504;-58
2023/12/28 05:13:09;;;;;;;14.00;3.00;;;;;;;-147.86;100.00;-17609.17;106047;1254;72324;-51
2023/12/28 05:15:36;;;;;;;4.70;2.50;;;;;;;-147.86;100.00;-17609.17;106090;1254;60469;-52
2023/12/28 05:18:04;;;;;;;9.00;2.40;;;;;;;-147.86;100.00;-17609.17;106042;1250;60462;-53
2023/12/28 05:20:31;;;;;;;5.30;2.50;;;;;;;-147.86;100.00;-17609.17;106064;1254;74019;-54
2023/12/28 05:22:58;;;;;;;10.70;2.90;;;;;;;-147.86;100.00;-17609.17;106088;1254;63449;-55
2023/12/28 05:25:25;;;;;;;9.40;3.10;;;;;;;-147.86;100.00;-17609.17;106081;1253;72777;-54
2023/12/28 05:27:52;;;;;;;5.70;2.90;;;;;;;-147.86;100.00;-17609.17;106056;1254;61101;-53
2023/12/28 05:30:19;;;;;;;9.50;2.80;;;;;;;-147.86;100.00;-17609.17;106057;1251;60440;-55
2023/12/28 05:32:47;;;;;;;8.90;2.50;;;;;;;-147.86;100.00;-17609.17;106059;1252;73755;-56
2023/12/28 05:35:14;;;;;;;7.10;3.00;;;;;;;-147.86;100.00;-17609.17;106082;1254;64720;-52
2023/12/28 05:37:41;;;;;;;10.30;2.90;;;;;;;-147.86;100.00;-17609.17;106051;1254;72644;-56
2023/12/28 05:40:09;;;;;;;4.00;2.30;;;;;;;-147.86;100.00;-17609.17;106109;1254;61091;-55
2023/12/28 05:42:37;;;;;;;7.60;2.60;;;;;;;-147.86;100.00;-17609.17;106056;1251;60418;-55
2023/12/28 05:45:04;;;;;;;7.60;2.60;;;;;;;-147.86;100.00;-17609.17;106101;1253;73789;-52
2023/12/28 05:47:33;;;;;;;9.00;2.60;;;;;;;-147.86;100.00;-17609.17;106064;1254;64371;-54
2023/12/28 05:50:02;;;;;;;7.80;3.40;;;;;;;-147.86;100.00;-17609.17;106055;1254;72627;-54
2023/12/28 05:52:30;;;;;;;8.70;2.70;;;;;;;-147.86;100.00;-17609.17;105999;1254;61148;-50
2023/12/28 05:54:58;;;;;;;6.60;2.90;;;;;;;-147.86;100.00;-17609.17;106065;1251;60533;-51
2023/12/28 05:57:29;;;;;;;5.40;3.10;;;;;;;-147.86;100.00;-17609.17;105869;1253;307922;-52
2023/12/28 06:02:26;;;;;;;10.20;2.90;;;;;;;-147.86;100.00;-17609.17;102783;1291;603442;-54
2023/12/28 06:04:52;;;;;;;7.90;2.60;;;;;;;-147.86;100.00;-17609.17;105877;1254;59242;-52
2023/12/28 06:07:19;;;;;;;6.30;2.50;;;;;;;-147.86;100.00;-17609.17;105916;1252;60291;-55
2023/12/28 06:09:47;;;;;;;10.10;2.50;;;;;;;-147.86;100.00;-17609.17;105897;1254;72207;-55
2023/12/28 06:12:14;;;;;;;10.50;2.90;;;;;;;-147.86;100.00;-17609.17;105899;1258;64772;-56
2023/12/28 06:14:41;;;;;;;5.20;2.50;;;;;;;-147.86;100.00;-17609.17;105767;1256;200403;-53
2023/12/28 06:17:08;;;;;;;9.50;2.40;;;;;;;-147.86;100.00;-17609.17;106006;1254;60942;-57
2023/12/28 06:19:35;;;;;;;4.60;2.10;;;;;;;-147.86;100.00;-17609.17;105967;1250;60294;-56
2023/12/28 06:22:03;;;;;;;7.50;2.80;;;;;;;-147.86;100.00;-17609.17;106004;1250;72268;-51
2023/12/28 06:24:30;;;;;;;7.80;3.00;;;;;;;-147.86;100.00;-17609.17;105982;1254;64731;-52
2023/12/28 06:26:57;;;;;;;12.00;3.10;;;;;;;-147.86;100.00;-17609.17;105999;1253;72586;-53
2023/12/28 06:29:23;;;;;;;4.40;2.50;;;;;;;-147.86;100.00;-17609.17;105927;1254;61133;-55
2023/12/28 06:31:51;;;;;;;6.90;2.50;;;;;;;-147.86;100.00;-17609.17;105964;1251;60298;-52
2023/12/28 06:34:18;;;;;;;7.40;2.80;;;;;;;-147.86;100.00;-17609.17;106025;1250;73044;-54
2023/12/28 06:36:45;;;;;;;10.60;3.70;;;;;;;-147.86;100.00;-17609.17;106025;1254;64597;-55
2023/12/28 06:39:12;;;;;;;6.10;2.50;;;;;;;-147.86;100.00;-17609.17;105985;1250;72665;-55
2023/12/28 06:41:39;;;;;;;5.70;2.50;;;;;;;-147.86;100.00;-17609.17;105994;1254;61183;-55
2023/12/28 06:44:06;;;;;;;8.30;2.90;;;;;;;-147.86;100.00;-17609.17;105961;1250;60130;-52
2023/12/28 06:46:33;;;;;;;6.90;2.70;;;;;;;-147.86;100.00;-17609.17;105998;1250;73002;-56
2023/12/28 06:49:00;;;;;;;7.50;2.80;;;;;;;-147.86;100.00;-17609.17;106005;1254;64697;-59
2023/12/28 06:51:27;;;;;;;11.20;3.00;;;;;;;-147.86;100.00;-17609.17;105982;1250;72621;-53
2023/12/28 06:53:54;;;;;;;6.60;2.00;;;;;;;-147.86;100.00;-17609.17;105989;1255;61121;-52
2023/12/28 06:56:21;;;;;;;3.50;2.20;;;;;;;-147.86;100.00;-17609.17;105966;1253;60301;-51
2023/12/28 06:58:48;;;;;;;9.70;2.90;;;;;;;-147.86;100.00;-17609.17;106010;1255;73036;-54
2023/12/28 07:01:15;;;;;;;7.60;2.50;;;;;;;-147.86;100.00;-17609.17;105957;1254;63636;-54
2023/12/28 07:03:42;;;;;;;9.50;2.50;;;;;;;-147.86;100.00;-17609.17;105926;1251;72697;-51
2023/12/28 07:06:09;;;;;;;5.80;2.20;;;;;;;-147.86;100.00;-17609.17;105974;1255;61167;-53
2023/12/28 07:08:36;;;;;;;4.20;2.20;;;;;;;-147.86;100.00;-17609.17;105952;1251;60199;-54
2023/12/28 07:11:04;;;;;;;9.40;2.60;;;;;;;-147.86;100.00;-17609.17;106021;1251;73012;-56
2023/12/28 07:13:32;;;;;;;6.30;2.20;;;;;;;-147.86;100.00;-17609.17;105997;1256;64649;-53
2023/12/28 07:15:59;;;;;;;9.10;2.30;;;;;;;-147.86;100.00;-17609.17;105942;1251;72423;-58
2023/12/28 07:18:28;;;;;;;8.80;2.50;;;;;;;-147.86;100.00;-17609.17;105964;1252;61253;-53
2023/12/28 07:20:56;;;;;;;8.80;2.60;;;;;;;-147.86;100.00;-17609.17;105970;1253;59618;-53
2023/12/28 07:23:22;;;;;;;7.00;2.60;;;;;;;-147.86;100.00;-17609.17;105975;1251;73002;-51
2023/12/28 07:25:49;;;;;;;8.20;2.50;;;;;;;-147.86;100.00;-17609.17;106044;1254;64712;-58
2023/12/28 07:28:16;;;;;;;8.30;2.70;;;;;;;-147.86;100.00;-17609.17;106001;1251;72666;-53
2023/12/28 07:30:43;;;;;;;11.50;2.40;;;;;;;-147.86;100.00;-17609.17;105891;1254;62525;-55
2023/12/28 07:33:10;;;;;;;11.00;2.70;;;;;;;-147.86;100.00;-17609.17;105966;1253;60630;-52
2023/12/28 07:35:38;;;;;;;7.60;2.70;;;;;;;-147.86;100.00;-17609.17;105987;1251;74278;-55
2023/12/28 07:38:05;;;;;;;10.30;3.20;;;;;;;-147.86;100.00;-17609.17;105978;1254;64554;-53
2023/12/28 07:40:32;;;;;;;8.30;2.30;;;;;;;-147.86;100.00;-17609.17;105944;1251;72636;-55
2023/12/28 07:43:00;;;;;;;4.80;2.60;;;;;;;-147.86;100.00;-17609.17;105978;1251;59893;-55
2023/12/28 07:45:28;;;;;;;6.70;2.50;;;;;;;-147.86;100.00;-17609.17;106044;1251;59712;-52
2023/12/28 07:59:44;;;;;;;10.30;3.00;;;;;;;-147.86;100.00;-17609.17;103184;1287;616207;-54
2023/12/28 08:02:12;;;;;;;5.30;2.50;;;;;;;-147.86;100.00;-17609.17;104905;1264;86753;-53
2023/12/28 08:04:39;;;;;;;7.70;2.00;;;;;;;-147.86;100.00;-17609.17;105985;1253;60261;-52
2023/12/28 08:07:08;;;;;;;6.00;2.60;;;;;;;-147.86;100.00;-17609.17;106036;1256;72124;-51
2023/12/28 08:09:35;;;;;;;10.70;2.80;;;;;;;-147.86;100.00;-17609.17;105993;1251;64351;-54
2023/12/28 08:12:03;;;;;;;13.00;2.70;;;;;;;-147.86;100.00;-17609.17;106003;1256;71946;-56
2023/12/28 08:14:30;;;;;;;8.20;3.10;;;;;;;-147.86;100.00;-17609.17;105990;1253;59241;-54
2023/12/28 08:16:57;;;;;;;9.00;3.20;;;;;;;-147.86;100.00;-17609.17;105961;1251;60110;-52
2023/12/28 08:19:23;;;;;;;7.40;2.40;;;;;;;-147.86;100.00;-17609.17;105984;1251;70857;-56
2023/12/28 08:21:50;;;;;;;5.60;2.40;;;;;;;-147.86;100.00;-17609.17;105962;1257;64591;-55
2023/12/28 08:24:17;;;;;;;8.20;2.80;;;;;;;-147.86;100.00;-17609.17;105980;1254;71587;-54
2023/12/28 08:26:45;;;;;;;9.40;2.50;;;;;;;-147.86;100.00;-17609.17;105981;1256;59586;-54
2023/12/28 08:29:12;;;;;;;8.70;2.80;;;;;;;-147.86;100.00;-17609.17;106007;1251;60132;-54
2023/12/28 08:31:39;;;;;;;5.00;2.50;;;;;;;-147.86;100.00;-17609.17;105973;1254;71798;-54
2023/12/28 08:34:06;;;;;;;5.40;2.50;;;;;;;-147.86;100.00;-17609.17;105972;1256;64571;-52
2023/12/28 08:36:33;;;;;;;6.00;2.60;;;;;;;-147.86;100.00;-17609.17;105993;1251;72398;-52
2023/12/28 08:39:00;;;;;;;8.60;3.00;;;;;;;-147.86;100.00;-17609.17;105968;1256;59895;-54
2023/12/28 08:41:27;;;;;;;8.60;3.00;;;;;;;-147.86;100.00;-17609.17;106026;1251;60224;-52
2023/12/28 08:43:54;;;;;;;10.40;2.90;;;;;;;-147.86;100.00;-17609.17;105991;1251;73064;-51
2023/12/28 08:46:22;;;;;;;11.90;3.00;;;;;;;-147.86;100.00;-17609.17;105984;1255;64622;-54
2023/12/28 08:48:49;;;;;;;11.20;3.20;;;;;;;-147.86;100.00;-17609.17;105993;1256;73547;-54
2023/12/28 08:51:16;;;;;;;6.20;3.20;;;;;;;-147.86;100.00;-17609.17;106023;1253;60201;-52
2023/12/28 08:53:43;;;;;;;13.10;3.20;;;;;;;-147.86;100.00;-17609.17;105956;1252;60447;-54
2023/12/28 08:56:15;;;;;;;6.80;3.40;;;;;;;-147.86;100.00;-17609.17;105997;1251;71788;-56
2023/12/28 08:58:42;;;;;;;10.00;3.30;;;;;;;-147.86;100.00;-17609.17;105910;1256;64488;-53
2023/12/28 09:01:29;;;;;;;12.40;3.40;;;;;;;-147.86;100.00;-17609.17;106099;1256;72470;-55
2023/12/28 09:03:56;;;;;;;7.40;2.60;;;;;;;-147.86;99.46;-17609.17;105967;1253;61071;-52
2023/12/28 09:06:23;;;;;;;8.70;3.20;;;;;;;-147.86;99.20;-17609.17;105938;1251;60275;-52
2023/12/28 09:08:51;;;;;;;7.40;2.90;;;;;;;-147.86;99.27;-17609.17;105942;1251;72969;-52
2023/12/28 09:11:18;;;;;;;15.10;3.70;;;;;;;-147.86;99.17;-17609.17;106071;1251;63434;-52
2023/12/28 09:13:45;;;;;;;7.50;3.00;;;;;;;-147.86;98.61;-17609.17;105976;1251;72598;-53
2023/12/28 09:16:14;;;;;;;10.50;3.30;;;;;;;-147.86;98.04;-17609.17;105954;1257;59701;-54
2023/12/28 09:18:41;;;;;;;9.70;3.30;;;;;;;-147.86;97.57;-17609.17;105941;1251;60118;-52
2023/12/28 09:21:09;;;;;;;7.90;2.90;;;;;;;-147.86;97.15;-17609.17;105963;1253;73023;-56
2023/12/28 09:23:36;;;;;;;8.50;2.70;;;;;;;-147.86;97.20;-17609.17;105941;1251;63269;-49
2023/12/28 09:26:04;;;;;;;7.80;3.60;;;;;;;-147.86;96.59;-17609.17;105931;1251;72603;-54
2023/12/28 09:28:34;;;;;;;10.90;3.90;;;;;;;-147.86;96.32;-17609.17;105977;1255;60062;-53
2023/12/28 09:31:02;;;;;;;9.40;3.30;;;;;;;-147.86;95.36;-17609.17;105979;1252;60285;-56
2023/12/28 09:33:29;;;;;;;14.80;3.40;;;;;;;-147.86;95.84;-17609.17;105987;1251;73044;-54
2023/12/28 09:35:56;;;;;;;7.50;3.10;;;;;;;-147.86;94.77;-17609.17;106043;1252;64639;-56
2023/12/28 09:38:23;;;;;;;11.20;3.20;;;;;;;-147.86;94.14;-17609.17;105698;1251;73958;-53
2023/12/28 09:40:52;;;;;;;6.70;3.00;;;;;;;-147.86;93.11;-17609.17;106034;1254;60998;-52
2023/12/28 09:43:26;;;;;;;8.90;3.30;;;;;;;-147.86;91.92;-17609.17;105952;1251;60333;-53
2023/12/28 09:45:54;;;;;;;8.20;2.90;;;;;;;-147.86;91.63;-17609.17;105975;1251;73106;-53
2023/12/28 09:48:24;;;;;;;4.90;2.50;;;;;;;-147.86;92.31;-17609.17;105961;1251;63243;-51
2023/12/28 09:50:54;;;;;;;7.90;2.80;;;;;;;-147.86;92.78;-17609.17;106048;1256;72591;-53
2023/12/28 09:53:24;;;;;;;8.70;3.10;;;;;;;-147.86;92.95;-17609.17;106004;1255;59720;-51
2023/12/28 09:55:51;;;;;;;7.90;2.80;;;;;;;-147.86;92.69;-17609.17;105975;1251;61541;-53
2023/12/28 09:58:19;;;;;;;10.40;4.10;;;;;;;-147.86;92.07;-17609.17;105972;1254;74630;-51
2023/12/28 10:00:47;;;;;;;11.40;3.30;;;;;;;-147.86;91.83;-17609.17;105986;1256;65919;-53
2023/12/28 10:03:15;;;;;;;6.30;2.50;;;;;;;-147.86;91.30;-17609.17;105938;1251;72504;-53
2023/12/28 10:05:42;;;;;;;12.60;2.60;;;;;;;-147.86;91.03;-17609.17;105976;1256;59769;-55
2023/12/28 10:08:13;;;;;;;6.70;3.00;;;;;;;-147.86;90.07;-17608.30;105974;1256;60186;-52
2023/12/28 10:10:41;;;;;;;7.10;2.50;;;;;;;-147.86;89.44;-17311.65;106026;1251;73126;-54
2023/12/28 10:13:09;;;;;;;11.20;3.10;;;;;;;-147.86;88.84;-16620.75;105980;1252;66193;-56
2023/12/28 10:15:36;;;;;;;11.00;2.80;;;;;;;-147.86;88.36;-15979.08;105923;1256;72618;-54
2023/12/28 10:18:04;;;;;;;10.20;3.00;;;;;;;-147.86;87.35;-14596.62;105947;1256;59901;-53
2023/12/28 10:20:31;;;;;;;11.30;3.30;;;;;;;-147.86;87.22;-13559.53;106055;1251;61881;-51
2023/12/28 10:22:59;;;;;;;5.40;2.80;;;;;;;-147.86;87.09;-13559.53;105939;1256;73054;-57
2023/12/28 10:25:27;;;;;;;9.40;2.70;;;;;;;-147.86;86.44;-12423.29;105778;1258;64714;-53
2023/12/28 10:27:54;;;;;;;6.20;2.80;;;;;;;-147.86;86.11;-11682.08;105845;1256;73099;-54
2023/12/28 10:30:21;;;;;;;7.70;3.00;;;;;;;-147.86;86.27;-11484.41;105685;1256;59704;-54
2023/12/28 10:32:49;;;;;;;13.80;3.40;;;;;;;-147.86;86.11;-11187.87;105782;1251;60397;-55
2023/12/28 10:35:16;;;;;;;8.70;3.20;;;;;;;-147.86;86.18;-11237.30;105891;1251;73123;-54
2023/12/28 10:37:43;;;;;;;8.70;2.80;;;;;;;-147.86;86.96;-12423.26;105965;1255;64655;-52
2023/12/28 10:40:15;;;;;;;9.30;2.90;;;;;;;-147.86;86.94;-13114.96;105962;1251;73802;-58
2023/12/28 10:42:45;;;;;;;9.30;2.90;;;;;;;-147.86;87.26;-13757.10;105940;1256;59913;-56
2023/12/28 10:45:13;;;;;;;14.90;3.00;;;;;;;-147.86;87.08;-13658.32;105984;1251;60296;-52
2023/12/28 10:47:43;;;;;;;5.70;2.50;;;;;;;-147.86;87.35;-14053.44;105998;1253;74316;-49
2023/12/28 10:50:10;;;;;;;10.20;2.60;;;;;;;-147.86;87.83;-14991.69;105989;1256;64621;-51
2023/12/28 10:52:38;;;;;;;6.70;2.50;;;;;;;-147.86;87.69;-15337.32;105970;1255;73057;-52
2023/12/28 10:55:25;;;;;;;7.20;2.60;;;;;;;-147.86;87.38;-14843.57;105714;1256;60963;-54
2023/12/28 10:58:15;;;;;;;7.30;2.80;;;;;;;-147.86;87.80;-15189.19;105984;1251;60163;-53
2023/12/28 11:00:46;;;;;;;7.90;3.10;;;;;;;-147.86;86.89;-14448.52;105971;1251;73495;-53
2023/12/28 11:03:15;;;;;;;4.00;2.50;;;;;;;-147.86;87.01;-13954.67;105985;1251;64053;-54
2023/12/28 11:05:42;;;;;;;6.40;2.60;;;;;;;-147.86;87.12;-14399.14;105979;1255;72652;-54
2023/12/28 11:08:10;;;;;;;9.80;3.10;;;;;;;-147.86;86.80;-14250.97;105962;1256;60441;-55
2023/12/28 11:10:37;;;;;;;9.60;3.30;;;;;;;-147.86;86.36;-13213.76;105802;1256;59728;-52
2023/12/28 11:13:04;;;;;;;8.90;2.90;;;;;;;-147.86;86.80;-13707.71;105701;1253;72755;-54